Time;durP1;ratioP1;P1;durP2;ratioP2;P2;SDS_P1;SDS_P2;PMS_P1;PMS_P2;Temp;Humidity;BMP_temperature;BMP_pressure;BME280_temperature;BME280_humidity;BME280_pressure;Samples;Min_cycle;Max_cycle;Signal;HPM_P1;HPM_P2
2022/08/06 00:00:17;;;;;;;6.73;3.17;;;27.00;55.00;;;;;;5083547;28;20239;-77
2022/08/06 00:02:53;;;;;;;5.10;3.23;;;27.00;55.00;;;;;;5083706;28;20232;-77
2022/08/06 00:05:21;;;;;;;9.70;4.00;;;27.10;55.10;;;;;;5086857;28;20272;-77
2022/08/06 00:07:56;;;;;;;4.10;3.43;;;27.10;55.80;;;;;;5088042;28;20286;-77
2022/08/06 00:10:25;;;;;;;5.30;3.80;;;27.10;55.10;;;;;;5102978;28;20262;-77
2022/08/06 00:12:58;;;;;;;4.67;3.40;;;27.10;55.20;;;;;;5099032;28;20519;-77
2022/08/06 00:15:28;;;;;;;3.63;3.33;;;27.00;55.30;;;;;;5095201;28;20528;-77
2022/08/06 00:18:15;;;;;;;3.43;3.13;;;27.00;55.60;;;;;;5085323;28;20209;-77
2022/08/06 00:20:44;;;;;;;8.03;3.63;;;27.00;55.70;;;;;;5085149;28;20493;-77
2022/08/06 00:23:16;;;;;;;4.93;3.57;;;27.00;55.80;;;;;;5089034;28;20290;-77
2022/08/06 00:25:45;;;;;;;4.50;3.37;;;27.00;56.00;;;;;;5086733;28;20213;-77
2022/08/06 00:28:24;;;;;;;3.80;3.50;;;27.00;56.10;;;;;;5089930;28;20567;-77
2022/08/06 00:31:02;;;;;;;7.17;4.10;;;27.00;56.20;;;;;;5092672;28;20239;-77
2022/08/06 00:33:37;;;;;;;6.77;3.87;;;26.90;56.30;;;;;;5094859;28;20628;-77
2022/08/06 00:36:25;;;;;;;4.80;3.43;;;26.90;56.50;;;;;;5092720;28;20226;-77
2022/08/06 00:38:58;;;;;;;5.90;4.03;;;26.80;57.00;;;;;;5092374;28;20209;-77
2022/08/06 00:41:28;;;;;;;4.43;3.50;;;26.80;57.20;;;;;;5089104;28;20211;-77
2022/08/06 00:44:07;;;;;;;8.30;4.07;;;26.80;57.50;;;;;;5100025;28;20208;-77
2022/08/06 00:46:38;;;;;;;3.80;3.50;;;26.70;57.60;;;;;;5088352;28;20236;-77
2022/08/06 00:49:07;;;;;;;5.03;3.60;;;26.70;57.80;;;;;;5089952;28;20214;-77
2022/08/06 00:51:38;;;;;;;4.83;3.90;;;26.60;58.00;;;;;;5101526;28;20224;-77
2022/08/06 00:54:19;;;;;;;4.17;3.77;;;26.60;58.10;;;;;;5071167;28;20294;-77
2022/08/06 00:57:05;;;;;;;7.00;3.60;;;26.60;58.10;;;;;;5089593;28;20588;-76
2022/08/06 00:59:36;;;;;;;3.93;3.60;;;26.50;57.50;;;;;;5070917;28;20271;-76
2022/08/06 01:02:04;;;;;;;9.33;4.10;;;26.50;57.30;;;;;;5090642;28;20257;-76
2022/08/06 01:04:36;;;;;;;5.43;4.10;;;26.40;57.60;;;;;;5083778;28;20601;-76
2022/08/06 01:07:04;;;;;;;8.73;4.07;;;26.40;58.20;;;;;;5076526;28;20311;-77
2022/08/06 01:09:35;;;;;;;9.70;4.43;;;26.30;58.30;;;;;;5088464;28;20197;-77
2022/08/06 01:12:22;;;;;;;7.57;4.20;;;26.20;58.50;;;;;;5091879;28;20201;-77
2022/08/06 01:15:04;;;;;;;6.90;4.13;;;26.10;58.80;;;;;;5093178;28;20205;-76
2022/08/06 01:17:48;;;;;;;5.53;4.10;;;26.10;59.30;;;;;;5086471;28;20205;-76
2022/08/06 01:20:57;;;;;;;4.50;4.10;;;26.00;60.10;;;;;;5083005;28;20209;-76
2022/08/06 01:24:31;;;;;;;7.53;4.30;;;26.00;60.30;;;;;;5096189;28;20200;-76
2022/08/06 01:27:35;;;;;;;6.60;4.63;;;26.00;60.20;;;;;;5059755;28;20208;-77
2022/08/06 01:30:19;;;;;;;4.83;4.40;;;25.90;60.70;;;;;;4977906;28;20240;-77
2022/08/06 01:33:01;;;;;;;7.37;4.83;;;25.80;60.60;;;;;;5084640;28;20213;-77
2022/08/06 01:35:47;;;;;;;8.30;4.33;;;25.80;60.80;;;;;;5100623;28;20208;-77
2022/08/06 01:38:24;;;;;;;8.97;4.97;;;25.70;61.30;;;;;;5078307;28;20413;-77
2022/08/06 01:40:52;;;;;;;5.73;4.47;;;25.60;61.60;;;;;;5103639;28;20685;-77
2022/08/06 01:43:22;;;;;;;5.33;4.27;;;25.60;61.70;;;;;;5092395;28;20260;-78
2022/08/06 01:46:12;;;;;;;5.60;4.30;;;25.50;61.70;;;;;;5088484;28;20252;-78
2022/08/06 01:48:43;;;;;;;7.37;4.67;;;25.40;62.00;;;;;;5090086;28;20617;-78
2022/08/06 01:51:12;;;;;;;4.90;4.37;;;25.40;62.40;;;;;;5105970;28;20224;-78
2022/08/06 01:54:02;;;;;;;6.27;4.50;;;25.30;62.60;;;;;;5084784;28;20612;-78
2022/08/06 01:56:37;;;;;;;7.53;4.37;;;25.30;62.30;;;;;;5090711;28;20598;-78
2022/08/06 01:59:34;;;;;;;7.90;4.40;;;25.40;62.40;;;;;;5101226;28;20325;-78
2022/08/06 02:02:06;;;;;;;3.87;3.57;;;25.40;62.30;;;;;;5086376;28;20703;-78
2022/08/06 02:04:39;;;;;;;6.37;4.60;;;25.40;62.00;;;;;;5105630;28;20387;-78
2022/08/06 02:07:12;;;;;;;4.33;3.93;;;25.40;62.00;;;;;;5103977;28;20196;-78
2022/08/06 02:10:04;;;;;;;9.50;4.10;;;25.40;61.90;;;;;;5083527;28;20206;-78
2022/08/06 02:12:32;;;;;;;6.47;4.10;;;25.40;61.80;;;;;;5094017;28;20694;-78
2022/08/06 02:15:12;;;;;;;5.90;3.87;;;25.50;61.60;;;;;;5086119;28;20563;-78
2022/08/06 02:17:44;;;;;;;4.37;3.93;;;25.50;61.50;;;;;;5091585;28;20661;-78
2022/08/06 02:20:38;;;;;;;5.23;3.87;;;25.50;61.30;;;;;;5090846;28;20199;-78
2022/08/06 02:23:24;;;;;;;6.43;4.03;;;25.50;61.10;;;;;;5085227;28;20206;-78
2022/08/06 02:26:00;;;;;;;8.87;4.10;;;25.50;61.00;;;;;;5086828;28;20212;-78
2022/08/06 02:28:29;;;;;;;6.50;3.90;;;25.60;60.90;;;;;;5100520;28;20205;-78
2022/08/06 02:30:57;;;;;;;4.90;4.10;;;25.60;60.80;;;;;;5095794;28;20213;-78
2022/08/06 02:33:27;;;;;;;4.20;3.67;;;25.60;60.60;;;;;;5092266;28;20210;-78
2022/08/06 02:36:27;;;;;;;6.67;4.03;;;25.60;60.30;;;;;;5082549;28;20638;-78
2022/08/06 02:39:26;;;;;;;6.50;4.47;;;25.60;60.40;;;;;;5101058;28;20275;-78
2022/08/06 02:42:26;;;;;;;9.33;4.90;;;25.60;61.00;;;;;;5093090;28;20239;-77
2022/08/06 02:45:02;;;;;;;7.83;4.77;;;25.60;61.20;;;;;;5101917;28;20208;-78
2022/08/06 02:47:58;;;;;;;6.60;4.60;;;25.60;61.20;;;;;;5090493;28;20873;-78
2022/08/06 02:50:34;;;;;;;6.43;4.60;;;25.50;61.10;;;;;;5061351;28;20229;-77
2022/08/06 02:53:08;;;;;;;4.63;4.23;;;25.50;61.10;;;;;;5088726;28;20235;-78
2022/08/06 02:56:00;;;;;;;6.30;4.10;;;25.50;61.10;;;;;;5087540;28;20226;-77
2022/08/06 02:58:47;;;;;;;7.00;5.07;;;25.50;61.00;;;;;;5092341;28;20626;-77
2022/08/06 03:01:32;;;;;;;7.40;5.13;;;25.50;60.90;;;;;;5091530;28;20244;-77
2022/08/06 03:04:10;;;;;;;7.57;5.07;;;25.40;61.00;;;;;;5102401;28;20208;-78
2022/08/06 03:06:40;;;;;;;11.10;5.10;;;25.50;61.10;;;;;;5083172;28;20211;-78
2022/08/06 03:09:10;;;;;;;6.37;5.23;;;25.40;61.00;;;;;;5087419;28;20201;-78
2022/08/06 03:11:44;;;;;;;5.30;4.43;;;25.40;61.00;;;;;;5102472;28;20252;-78
2022/08/06 03:14:16;;;;;;;6.50;4.87;;;25.40;61.20;;;;;;5093385;28;20309;-78
2022/08/06 03:17:05;;;;;;;6.07;4.93;;;25.40;61.40;;;;;;5085076;28;20207;-78
2022/08/06 03:19:34;;;;;;;6.23;5.30;;;25.40;61.50;;;;;;5094968;28;20197;-78
2022/08/06 03:22:23;;;;;;;7.20;5.37;;;25.40;61.40;;;;;;5094660;28;20711;-78
2022/08/06 03:25:12;;;;;;;5.90;5.27;;;25.40;61.20;;;;;;5085145;28;20296;-78
2022/08/06 03:27:41;;;;;;;5.67;4.97;;;25.40;61.40;;;;;;5101282;28;20202;-78
2022/08/06 03:30:16;;;;;;;8.77;5.00;;;25.30;61.70;;;;;;5089384;28;20225;-78
2022/08/06 03:33:07;;;;;;;7.73;4.67;;;25.40;61.80;;;;;;5089462;28;20202;-78
2022/08/06 03:35:57;;;;;;;6.80;5.53;;;25.30;62.30;;;;;;5091581;28;20225;-76
2022/08/06 03:38:30;;;;;;;6.97;5.47;;;25.30;62.40;;;;;;5082063;28;20212;-76
2022/08/06 03:41:00;;;;;;;11.10;5.63;;;25.30;62.10;;;;;;5088999;28;20209;-76
2022/08/06 03:43:29;;;;;;;8.00;5.47;;;25.20;62.00;;;;;;5089148;28;20215;-76
2022/08/06 03:46:35;;;;;;;7.43;5.87;;;25.20;62.20;;;;;;5088856;28;20304;-77
2022/08/06 03:49:06;;;;;;;7.87;5.80;;;25.10;62.30;;;;;;5092173;28;20218;-78
2022/08/06 03:51:36;;;;;;;11.03;5.50;;;25.10;62.30;;;;;;5077430;28;20222;-78
2022/08/06 03:54:26;;;;;;;6.87;4.80;;;25.10;62.70;;;;;;5084917;28;20193;-78
2022/08/06 03:57:03;;;;;;;5.47;4.33;;;25.00;62.40;;;;;;5086065;28;20201;-78
2022/08/06 03:59:42;;;;;;;12.30;5.10;;;25.00;62.40;;;;;;5100164;28;20613;-77
2022/08/06 04:02:37;;;;;;;7.77;5.20;;;24.90;62.50;;;;;;5105930;28;20216;-78
2022/08/06 04:05:22;;;;;;;5.20;4.80;;;24.90;63.10;;;;;;5074535;28;20229;-78
2022/08/06 04:08:03;;;;;;;8.40;5.20;;;24.90;63.20;;;;;;5097661;28;20663;-78
2022/08/06 04:10:38;;;;;;;7.43;5.87;;;24.90;63.00;;;;;;5104731;28;20206;-78
2022/08/06 04:13:11;;;;;;;8.30;5.37;;;24.90;63.30;;;;;;5111441;28;20219;-78
2022/08/06 04:15:59;;;;;;;8.80;5.23;;;24.90;63.60;;;;;;5088675;28;20200;-78
2022/08/06 04:18:32;;;;;;;10.10;5.70;;;24.90;63.60;;;;;;5090887;28;20225;-78
2022/08/06 04:21:16;;;;;;;7.30;5.03;;;24.90;63.70;;;;;;5091088;28;20223;-78
2022/08/06 04:24:04;;;;;;;5.73;5.13;;;24.80;64.20;;;;;;5097366;28;20259;-78
2022/08/06 04:26:38;;;;;;;8.23;5.53;;;24.90;64.40;;;;;;5107278;27;20213;-78
2022/08/06 04:29:11;;;;;;;8.43;5.83;;;24.80;64.40;;;;;;5080549;28;20642;-78
2022/08/06 04:31:45;;;;;;;6.57;5.70;;;24.80;64.20;;;;;;5092765;28;20307;-78
2022/08/06 04:34:34;;;;;;;7.47;5.60;;;24.80;64.10;;;;;;5101546;28;20227;-78
2022/08/06 04:37:21;;;;;;;8.17;6.17;;;24.90;64.20;;;;;;5092716;28;20206;-78
2022/08/06 04:39:49;;;;;;;6.87;5.47;;;24.90;64.20;;;;;;5091910;28;20594;-78
2022/08/06 04:42:17;;;;;;;13.17;6.23;;;24.90;64.20;;;;;;5088821;28;20227;-78
2022/08/06 04:44:45;;;;;;;7.90;6.37;;;25.00;64.00;;;;;;5078702;28;20227;-78
2022/08/06 04:47:30;;;;;;;11.47;6.83;;;25.00;64.00;;;;;;5086413;28;20530;-78
2022/08/06 04:50:14;;;;;;;7.40;6.53;;;25.10;63.90;;;;;;5105322;28;20577;-78
2022/08/06 04:52:49;;;;;;;10.33;7.10;;;25.20;63.90;;;;;;5088738;28;20221;-78
2022/08/06 04:55:20;;;;;;;7.43;6.63;;;25.20;63.80;;;;;;5089172;28;20640;-78
2022/08/06 04:58:00;;;;;;;10.93;6.50;;;25.30;63.90;;;;;;5086481;28;20228;-77
2022/08/06 05:00:47;;;;;;;7.63;6.93;;;25.40;63.80;;;;;;5088128;28;20225;-78
2022/08/06 05:03:34;;;;;;;8.10;7.30;;;25.50;63.80;;;;;;5093366;28;20407;-78
2022/08/06 05:06:40;;;;;;;7.20;6.57;;;25.60;63.80;;;;;;5094155;28;20218;-78
2022/08/06 05:09:20;;;;;;;10.37;6.67;;;25.70;63.70;;;;;;5089892;28;20211;-78
2022/08/06 05:12:19;;;;;;;6.33;5.83;;;25.80;63.60;;;;;;5085064;28;20219;-78
2022/08/06 05:15:00;;;;;;;6.97;5.70;;;25.90;63.40;;;;;;5093996;28;20215;-78
2022/08/06 05:17:33;;;;;;;11.67;5.90;;;26.00;63.40;;;;;;5090347;28;20688;-78
2022/08/06 05:20:11;;;;;;;9.00;6.67;;;26.10;63.50;;;;;;5090297;28;20197;-78
2022/08/06 05:22:58;;;;;;;8.77;6.37;;;26.20;63.50;;;;;;5094326;28;20217;-78
2022/08/06 05:25:31;;;;;;;10.37;7.37;;;26.30;63.20;;;;;;5089418;28;20197;-78
2022/08/06 05:28:06;;;;;;;8.13;6.67;;;26.40;62.90;;;;;;5092176;28;20214;-78
2022/08/06 05:30:47;;;;;;;7.63;7.00;;;26.60;62.80;;;;;;5091592;28;20203;-76
2022/08/06 05:33:28;;;;;;;11.23;6.57;;;26.80;62.20;;;;;;5089988;28;20233;-78
2022/08/06 05:35:58;;;;;;;8.23;7.10;;;27.10;61.90;;;;;;5085463;28;20196;-76
2022/08/06 05:38:33;;;;;;;7.67;6.83;;;27.30;61.80;;;;;;5105736;28;20747;-76
2022/08/06 05:41:10;;;;;;;8.30;7.20;;;27.40;61.70;;;;;;5091088;28;20196;-76
2022/08/06 05:43:38;;;;;;;12.90;7.93;;;27.60;61.60;;;;;;5080080;28;20262;-75
2022/08/06 05:46:30;;;;;;;10.43;8.50;;;27.70;61.40;;;;;;5086355;28;20230;-76
2022/08/06 05:49:13;;;;;;;11.37;6.73;;;27.90;60.90;;;;;;5103976;28;20198;-76
2022/08/06 05:52:23;;;;;;;10.37;7.77;;;28.00;60.80;;;;;;5088158;28;20297;-76
2022/08/06 05:55:06;;;;;;;10.23;7.13;;;28.20;60.50;;;;;;5081272;28;20488;-77
2022/08/06 05:57:43;;;;;;;7.63;6.83;;;28.30;60.30;;;;;;5098337;27;20204;-77
2022/08/06 06:00:25;;;;;;;9.33;6.57;;;28.50;60.40;;;;;;5088805;28;20532;-76
2022/08/06 06:03:15;;;;;;;10.03;6.57;;;28.60;60.10;;;;;;5088450;28;20202;-78
2022/08/06 06:05:57;;;;;;;11.80;6.53;;;28.70;60.00;;;;;;5095067;28;20207;-76
2022/08/06 06:08:43;;;;;;;10.70;5.17;;;28.90;59.70;;;;;;5084312;28;20266;-77
2022/08/06 06:11:29;;;;;;;9.23;5.87;;;29.10;59.50;;;;;;5085722;28;20226;-77
2022/08/06 06:14:32;;;;;;;11.13;5.00;;;29.20;59.20;;;;;;5091294;28;20194;-78
2022/08/06 06:17:25;;;;;;;11.87;4.80;;;29.40;58.50;;;;;;5094549;28;20228;-78
2022/08/06 06:20:03;;;;;;;7.00;4.00;;;29.60;58.20;;;;;;5091843;28;20205;-77
2022/08/06 06:22:49;;;;;;;8.50;4.50;;;29.70;56.80;;;;;;5085628;28;20201;-76
2022/08/06 06:25:40;;;;;;;9.53;4.77;;;29.90;55.90;;;;;;5078809;28;20209;-77
2022/08/06 06:28:29;;;;;;;4.83;4.13;;;30.00;55.20;;;;;;5096605;28;20201;-76
2022/08/06 06:31:21;;;;;;;11.20;4.80;;;30.00;55.20;;;;;;5091653;28;20260;-76
2022/08/06 06:34:15;;;;;;;6.07;4.17;;;30.10;55.90;;;;;;5086599;28;20205;-77
2022/08/06 06:37:04;;;;;;;4.23;3.83;;;30.30;54.50;;;;;;5100211;28;20282;-77
2022/08/06 06:39:48;;;;;;;5.03;4.27;;;30.40;54.40;;;;;;5087997;28;20213;-76
2022/08/06 06:42:45;;;;;;;9.70;4.17;;;30.60;54.40;;;;;;5105396;28;20275;-78
2022/08/06 06:45:24;;;;;;;4.17;3.63;;;30.70;54.20;;;;;;5070491;28;20210;-78
2022/08/06 06:48:42;;;;;;;5.13;4.10;;;30.80;53.90;;;;;;5084771;28;20641;-77
2022/08/06 06:51:27;;;;;;;9.17;4.03;;;31.00;53.50;;;;;;5091511;28;20197;-78
2022/08/06 06:54:36;;;;;;;7.00;3.80;;;31.10;53.30;;;;;;5094106;28;20205;-77
2022/08/06 06:57:06;;;;;;;7.37;4.70;;;31.30;53.10;;;;;;5102098;28;20201;-78
2022/08/06 06:59:39;;;;;;;7.30;3.67;;;31.50;52.90;;;;;;5090517;28;20232;-77
2022/08/06 07:02:30;;;;;;;6.97;3.77;;;31.60;52.70;;;;;;5106712;28;20552;-78
2022/08/06 07:05:04;;;;;;;4.40;4.00;;;31.80;52.60;;;;;;5106120;28;20274;-77
2022/08/06 07:07:37;;;;;;;4.87;3.60;;;31.90;52.10;;;;;;5093285;28;20212;-78
2022/08/06 07:10:09;;;;;;;6.67;4.40;;;32.10;51.90;;;;;;5095299;28;20205;-77
2022/08/06 07:12:39;;;;;;;4.77;4.33;;;32.20;51.50;;;;;;5085398;28;20540;-77
2022/08/06 07:15:08;;;;;;;4.97;4.00;;;32.40;49.80;;;;;;5082629;28;20221;-78
2022/08/06 07:17:46;;;;;;;4.00;3.70;;;32.40;49.50;;;;;;5088276;28;20202;-77
2022/08/06 07:20:34;;;;;;;8.87;4.50;;;32.50;49.30;;;;;;5087588;28;20301;-77
2022/08/06 07:23:05;;;;;;;4.60;3.60;;;32.50;48.70;;;;;;5083571;28;20209;-77
2022/08/06 07:25:54;;;;;;;4.00;3.43;;;32.50;49.00;;;;;;5082904;28;20217;-78
2022/08/06 07:28:26;;;;;;;7.57;3.73;;;32.50;49.50;;;;;;5097619;28;20199;-78
2022/08/06 07:31:00;;;;;;;7.40;3.60;;;32.70;49.40;;;;;;5095453;28;20204;-78
2022/08/06 07:33:34;;;;;;;4.10;3.60;;;32.70;49.20;;;;;;5087120;28;20224;-78
2022/08/06 07:36:24;;;;;;;9.50;3.93;;;32.90;48.40;;;;;;5086164;28;20528;-77
2022/08/06 07:38:58;;;;;;;7.07;3.70;;;33.00;47.90;;;;;;5102262;28;20202;-77
2022/08/06 07:41:27;;;;;;;4.30;3.50;;;33.10;47.60;;;;;;5101374;28;20197;-77
2022/08/06 07:44:15;;;;;;;5.17;3.70;;;33.20;47.00;;;;;;5088670;28;20194;-76
2022/08/06 07:46:50;;;;;;;5.03;3.07;;;33.20;47.00;;;;;;5080633;28;20292;-78
2022/08/06 07:49:22;;;;;;;6.23;2.80;;;33.20;46.80;;;;;;5069987;28;20216;-78
2022/08/06 07:52:14;;;;;;;3.60;3.07;;;33.20;46.70;;;;;;5088364;28;20217;-77
2022/08/06 07:54:55;;;;;;;6.27;2.87;;;33.30;46.90;;;;;;5094226;28;20201;-78
2022/08/06 07:57:23;;;;;;;5.73;2.90;;;33.40;46.50;;;;;;5089310;28;20259;-78
2022/08/06 07:59:53;;;;;;;5.43;2.70;;;33.60;46.40;;;;;;5083513;28;20233;-78
2022/08/06 08:02:23;;;;;;;2.90;2.50;;;33.80;46.00;;;;;;5089111;28;20233;-77
2022/08/06 08:07:45;;;;;;;2.70;2.50;;;34.10;45.70;;;;;;5082350;28;20206;-77
2022/08/06 08:10:25;;;;;;;3.43;2.73;;;34.30;45.10;;;;;;5082062;28;20197;-77
2022/08/06 08:12:56;;;;;;;2.80;2.60;;;34.40;43.80;;;;;;5084109;28;20214;-77
2022/08/06 08:15:31;;;;;;;6.23;2.47;;;34.30;43.40;;;;;;5100221;28;20201;-77
2022/08/06 08:18:09;;;;;;;2.77;2.50;;;34.40;44.00;;;;;;5086127;28;20201;-77
2022/08/06 08:20:39;;;;;;;10.00;3.10;;;34.50;44.20;;;;;;5082767;28;20202;-77
2022/08/06 08:23:18;;;;;;;3.00;2.77;;;34.60;44.00;;;;;;5092321;28;20216;-77
2022/08/06 08:26:02;;;;;;;5.53;3.03;;;34.70;44.00;;;;;;5092105;28;20843;-77
2022/08/06 08:28:30;;;;;;;3.83;2.57;;;34.70;44.50;;;;;;5085122;28;20274;-76
2022/08/06 08:31:01;;;;;;;3.37;3.13;;;34.90;44.80;;;;;;5090008;28;20198;-77
2022/08/06 08:33:46;;;;;;;7.17;3.10;;;35.10;44.70;;;;;;5097119;28;20217;-77
2022/08/06 08:36:13;;;;;;;5.30;3.30;;;35.20;44.40;;;;;;5091505;28;20212;-77
2022/08/06 08:38:42;;;;;;;7.20;3.10;;;35.40;44.30;;;;;;5085723;28;20202;-77
2022/08/06 08:41:16;;;;;;;4.77;2.90;;;35.60;43.80;;;;;;5071465;28;20288;-77
2022/08/06 08:43:56;;;;;;;3.30;2.43;;;35.80;43.90;;;;;;5079813;28;20202;-77
2022/08/06 08:46:29;;;;;;;8.43;3.00;;;35.90;44.10;;;;;;5082869;28;20202;-77
2022/08/06 08:49:03;;;;;;;5.00;2.50;;;36.00;42.80;;;;;;5087351;28;20213;-77
2022/08/06 08:51:38;;;;;;;7.13;3.20;;;36.10;43.40;;;;;;5094678;28;20205;-76
2022/08/06 08:54:13;;;;;;;5.00;2.80;;;36.20;42.60;;;;;;5086728;28;20213;-76
2022/08/06 08:56:46;;;;;;;6.23;3.00;;;36.10;42.80;;;;;;5093450;28;20601;-76
2022/08/06 08:59:35;;;;;;;11.77;2.80;;;36.20;42.30;;;;;;5094200;28;20246;-77
2022/08/06 09:02:23;;;;;;;6.50;2.50;;;36.20;42.90;;;;;;5082885;28;20194;-76
2022/08/06 09:04:53;;;;;;;3.97;2.70;;;36.30;42.90;;;;;;5092592;28;20209;-76
2022/08/06 09:07:26;;;;;;;5.30;3.07;;;36.40;42.70;;;;;;5101157;28;20217;-76
2022/08/06 09:10:07;;;;;;;4.00;2.87;;;36.60;42.70;;;;;;5087434;28;20558;-76
2022/08/06 09:12:39;;;;;;;4.83;3.17;;;36.80;41.20;;;;;;5092873;28;20650;-77
2022/08/06 09:15:15;;;;;;;3.72;3.05;;;36.90;41.00;;;;;;5079816;28;20307;-77
2022/08/06 09:17:45;;;;;;;4.65;2.60;;;37.00;40.70;;;;;;5080440;28;20280;-77
2022/08/06 09:20:34;;;;;;;4.10;2.65;;;37.10;41.50;;;;;;5082586;28;20255;-76
2022/08/06 09:23:01;;;;;;;4.03;2.70;;;37.20;40.90;;;;;;5087832;28;20220;-76
2022/08/06 09:25:40;;;;;;;6.53;3.03;;;37.30;40.30;;;;;;5095005;28;20209;-76
2022/08/06 09:28:36;;;;;;;7.63;2.58;;;37.50;40.10;;;;;;5086544;28;20692;-76
2022/08/06 09:31:06;;;;;;;2.92;2.63;;;37.60;40.10;;;;;;5101196;28;20221;-77
2022/08/06 09:34:05;;;;;;;2.95;2.65;;;37.70;39.60;;;;;;5086368;28;20307;-77
2022/08/06 09:36:52;;;;;;;4.68;2.60;;;37.70;39.60;;;;;;5092182;28;20201;-77
2022/08/06 09:39:39;;;;;;;3.13;2.75;;;37.80;39.20;;;;;;5085880;28;20208;-77
2022/08/06 09:42:48;;;;;;;3.03;2.47;;;37.80;38.50;;;;;;5086312;28;20670;-78
2022/08/06 09:45:20;;;;;;;7.13;2.53;;;37.70;38.60;;;;;;5093013;28;20193;-77
2022/08/06 09:48:09;;;;;;;2.80;2.53;;;37.70;39.20;;;;;;5095206;28;20601;-78
2022/08/06 09:50:48;;;;;;;2.95;2.58;;;37.80;38.80;;;;;;5092053;28;20208;-77
2022/08/06 09:53:17;;;;;;;10.38;3.10;;;37.90;39.30;;;;;;5085519;28;20236;-77
2022/08/06 09:55:49;;;;;;;3.47;2.72;;;38.00;39.10;;;;;;5096422;28;20190;-78
2022/08/06 09:58:35;;;;;;;9.23;3.47;;;38.20;38.80;;;;;;5089146;28;20623;-77
2022/08/06 10:01:15;;;;;;;4.32;2.47;;;38.30;38.50;;;;;;5108938;27;20237;-77
2022/08/06 10:03:51;;;;;;;3.38;2.97;;;38.40;37.80;;;;;;5090956;28;20650;-77
2022/08/06 10:06:32;;;;;;;4.65;2.55;;;38.50;37.70;;;;;;5101249;28;20286;-76
2022/08/06 10:09:09;;;;;;;5.18;2.60;;;38.60;36.80;;;;;;5096478;28;20206;-76
2022/08/06 10:11:56;;;;;;;4.65;2.53;;;38.50;36.80;;;;;;5083988;28;20431;-76
2022/08/06 10:14:24;;;;;;;3.63;2.40;;;38.50;36.90;;;;;;5091556;28;20211;-76
2022/08/06 10:17:15;;;;;;;4.60;2.80;;;38.50;36.70;;;;;;5084667;28;20204;-76
2022/08/06 10:19:48;;;;;;;2.88;2.63;;;38.50;36.80;;;;;;5093453;28;20198;-76
2022/08/06 10:22:21;;;;;;;6.38;2.47;;;38.50;36.90;;;;;;5088807;28;20292;-76
2022/08/06 10:24:56;;;;;;;4.13;2.80;;;38.50;35.60;;;;;;5088205;28;20213;-76
2022/08/06 10:27:30;;;;;;;4.78;2.80;;;38.50;36.50;;;;;;5110707;28;20200;-76
2022/08/06 10:30:07;;;;;;;4.50;2.58;;;38.50;36.20;;;;;;5084817;28;20201;-76
2022/08/06 10:32:53;;;;;;;5.57;2.75;;;38.40;36.30;;;;;;5086297;28;20568;-76
2022/08/06 10:35:26;;;;;;;2.60;2.40;;;38.40;36.30;;;;;;5083973;28;20208;-76
2022/08/06 10:38:00;;;;;;;5.13;2.97;;;38.40;36.20;;;;;;5102839;28;20201;-76
2022/08/06 10:40:31;;;;;;;6.00;2.70;;;38.40;36.20;;;;;;5092296;28;20204;-76
2022/08/06 10:43:06;;;;;;;5.85;2.75;;;38.50;36.80;;;;;;5099091;28;20213;-76
2022/08/06 10:45:35;;;;;;;3.70;2.50;;;38.50;36.00;;;;;;5069054;28;20201;-76
2022/08/06 10:48:17;;;;;;;7.03;2.53;;;38.60;35.60;;;;;;5097303;28;20277;-76
2022/08/06 10:51:06;;;;;;;4.22;2.67;;;38.60;36.10;;;;;;5073364;28;20295;-77
2022/08/06 10:53:35;;;;;;;4.78;2.50;;;38.70;36.10;;;;;;5087054;28;20201;-77
2022/08/06 10:56:26;;;;;;;3.05;2.70;;;38.80;35.80;;;;;;5099473;27;20208;-77
2022/08/06 10:59:05;;;;;;;4.03;2.38;;;38.90;36.60;;;;;;5090213;28;20232;-77
2022/08/06 11:02:10;;;;;;;11.57;3.03;;;39.00;37.60;;;;;;5088111;28;20284;-76
2022/08/06 11:04:49;;;;;;;3.05;2.38;;;39.10;36.80;;;;;;5098128;28;20206;-76
2022/08/06 11:07:28;;;;;;;4.07;2.83;;;39.20;36.60;;;;;;5086183;28;20275;-76
2022/08/06 11:10:40;;;;;;;3.33;3.00;;;39.30;36.30;;;;;;5099491;28;20525;-76
2022/08/06 11:13:13;;;;;;;8.02;3.08;;;39.30;36.80;;;;;;5085193;28;20710;-76
2022/08/06 11:15:42;;;;;;;4.85;2.88;;;39.30;36.40;;;;;;5085418;28;20273;-77
2022/08/06 11:18:12;;;;;;;4.95;2.95;;;39.30;36.60;;;;;;5088132;28;20198;-77
2022/08/06 11:20:52;;;;;;;3.95;2.40;;;39.40;36.50;;;;;;5096416;28;20657;-77
2022/08/06 11:23:19;;;;;;;5.07;2.70;;;39.50;35.30;;;;;;5084949;28;20214;-77
2022/08/06 11:26:07;;;;;;;4.13;2.85;;;39.50;34.60;;;;;;5091298;28;20205;-77
2022/08/06 11:28:34;;;;;;;3.70;3.22;;;39.40;34.90;;;;;;5085904;28;20202;-77
2022/08/06 11:31:05;;;;;;;6.38;3.20;;;39.30;35.10;;;;;;5076817;28;20295;-77
2022/08/06 11:33:47;;;;;;;5.53;2.92;;;39.40;34.60;;;;;;5091025;28;20244;-77
2022/08/06 11:36:28;;;;;;;3.80;2.83;;;39.30;34.70;;;;;;5081104;28;20202;-76
2022/08/06 11:38:55;;;;;;;4.65;2.80;;;39.40;35.10;;;;;;5083332;28;20197;-77
2022/08/06 11:41:47;;;;;;;3.65;2.67;;;39.30;34.80;;;;;;5087581;28;20203;-77
2022/08/06 11:44:28;;;;;;;4.90;2.90;;;39.40;35.80;;;;;;5097041;28;20212;-77
2022/08/06 11:47:06;;;;;;;4.03;2.90;;;39.50;35.00;;;;;;5082807;28;20201;-77
2022/08/06 11:49:40;;;;;;;9.00;3.30;;;39.50;34.00;;;;;;5097245;28;20530;-77
2022/08/06 11:52:30;;;;;;;3.13;2.83;;;39.40;34.80;;;;;;5086892;28;20219;-77
2022/08/06 11:55:09;;;;;;;5.82;3.28;;;39.40;35.90;;;;;;5082110;28;20662;-76
2022/08/06 11:58:20;;;;;;;8.90;3.20;;;39.40;36.10;;;;;;5098309;28;20220;-76
2022/08/06 12:01:01;;;;;;;5.97;3.08;;;39.50;36.00;;;;;;5085167;28;20228;-76
2022/08/06 12:03:48;;;;;;;6.88;3.15;;;39.60;34.80;;;;;;5096205;28;20291;-77
2022/08/06 12:06:25;;;;;;;3.38;2.92;;;39.60;34.60;;;;;;5090208;28;20221;-77
2022/08/06 12:09:09;;;;;;;6.28;2.83;;;39.60;34.80;;;;;;5091509;28;20408;-77
2022/08/06 12:11:43;;;;;;;4.53;3.15;;;39.70;35.00;;;;;;5083166;28;20216;-77
2022/08/06 12:14:41;;;;;;;5.47;3.30;;;39.80;34.70;;;;;;5094182;28;20618;-78
2022/08/06 12:17:19;;;;;;;4.95;2.55;;;39.90;34.60;;;;;;5088014;28;20623;-77
2022/08/06 13:10:57;;;;;;;3.20;2.80;;;38.50;32.50;;;;;;5132477;27;20930;-79
2022/08/06 13:13:46;;;;;;;7.43;3.13;;;39.50;33.90;;;;;;5132667;28;20219;-79
2022/08/06 13:17:11;;;;;;;12.35;3.78;;;39.60;33.40;;;;;;5118796;28;20272;-79
2022/08/06 13:24:38;;;;;;;4.43;3.03;;;39.60;33.10;;;;;;5129731;28;20279;-79
2022/08/06 13:27:43;;;;;;;3.40;3.03;;;39.60;32.20;;;;;;5134600;28;20264;-79
2022/08/06 13:30:31;;;;;;;3.78;3.47;;;39.50;32.50;;;;;;5118828;28;20207;-79
2022/08/06 13:33:40;;;;;;;4.97;3.65;;;39.50;33.00;;;;;;5116537;28;20203;-78
2022/08/06 13:36:31;;;;;;;3.65;3.30;;;39.50;33.60;;;;;;5131808;28;20207;-78
2022/08/06 13:39:32;;;;;;;4.88;3.35;;;39.60;33.20;;;;;;5124247;28;20235;-79
2022/08/06 13:42:15;;;;;;;6.43;3.28;;;39.60;32.90;;;;;;5126861;28;20199;-79
2022/08/06 13:44:47;;;;;;;3.60;3.20;;;39.60;33.20;;;;;;5124564;28;20273;-78
2022/08/06 13:47:27;;;;;;;5.05;3.30;;;39.60;33.40;;;;;;5085742;28;20215;-79
2022/08/06 13:50:15;;;;;;;3.75;3.20;;;39.60;33.00;;;;;;5123445;28;20214;-79
2022/08/06 13:52:48;;;;;;;6.70;3.22;;;39.60;33.20;;;;;;5130683;28;20242;-78
2022/08/06 13:55:31;;;;;;;4.93;3.00;;;39.60;33.50;;;;;;5107092;28;20200;-80
2022/08/06 13:58:18;;;;;;;5.13;3.28;;;39.60;33.00;;;;;;5117886;28;20252;-77
2022/08/06 14:00:49;;;;;;;2.92;2.72;;;39.60;33.00;;;;;;5112949;28;20196;-78
2022/08/06 14:03:39;;;;;;;5.57;3.47;;;39.60;33.60;;;;;;5129167;28;20632;-78
2022/08/06 14:06:13;;;;;;;3.70;3.22;;;39.60;33.10;;;;;;5130075;28;20200;-78
2022/08/06 14:08:44;;;;;;;3.45;2.97;;;39.60;33.10;;;;;;5113966;28;20211;-79
2022/08/06 14:11:16;;;;;;;3.42;3.10;;;39.60;32.20;;;;;;5114186;28;20193;-78
2022/08/06 14:13:50;;;;;;;4.65;3.55;;;39.50;32.70;;;;;;5111470;28;20208;-79
2022/08/06 14:16:25;;;;;;;5.57;3.10;;;39.50;32.80;;;;;;5101854;28;20400;-79
2022/08/06 14:18:57;;;;;;;5.80;3.00;;;39.60;32.50;;;;;;5120111;28;20219;-79
2022/08/06 14:21:32;;;;;;;5.32;3.15;;;39.50;33.00;;;;;;5116969;28;20219;-78
2022/08/06 14:24:06;;;;;;;6.90;3.00;;;39.50;33.10;;;;;;5133798;27;20206;-79
2022/08/06 14:26:41;;;;;;;8.60;3.00;;;39.60;33.20;;;;;;5117622;28;20205;-79
2022/08/06 14:29:19;;;;;;;3.58;2.58;;;39.60;32.70;;;;;;5113402;28;20204;-78
2022/08/06 14:32:11;;;;;;;3.42;3.13;;;39.60;32.80;;;;;;5118306;27;20234;-79
2022/08/06 14:34:42;;;;;;;5.53;3.15;;;39.50;32.40;;;;;;5115684;28;20223;-79
2022/08/06 14:37:11;;;;;;;3.47;2.85;;;39.30;32.80;;;;;;5111275;28;20245;-79
2022/08/06 14:39:41;;;;;;;3.45;2.90;;;39.30;33.20;;;;;;5111916;28;20586;-78
2022/08/06 14:45:17;;;;;;;17.52;5.15;;;39.10;33.30;;;;;;5108860;28;20296;-79
2022/08/06 14:47:56;;;;;;;2.65;2.30;;;38.90;33.30;;;;;;5121754;28;20196;-78
2022/08/06 14:50:27;;;;;;;3.67;3.42;;;38.80;33.50;;;;;;5097426;28;20242;-79
2022/08/06 14:53:08;;;;;;;3.17;2.85;;;38.70;33.70;;;;;;5112019;28;20628;-78